If you wish to contribute or participate in the discussions about articles you are invited to join SKYbrary as a registered user

 Actions

Kadena Air Base

From SKYbrary Wiki

RODN /
Revision as of 21:35, 25 June 2020 by Admin (talk | contribs)
Airport
ICAO: RODN – IATA: DNA
Summary
Name Kadena Air Base
Region Asia and Pacific
Territory Japan JP.gif
Location Kadena, Okinawa
Serving Kadena
Elevation 44.501 m <br />146 ft <br />146 ft44.501 m <br />
Type large airport
Coordinates 26° 21' 20.20" N, 127° 46' 3.48" E
Runways
Designator Length Width Surface ROPS
05L/23R 3688 m12,099.738 ft <br /> 91 m298.556 ft <br /> ASP yes/yes
05R/23L 3688 m12,099.738 ft <br /> 61 m200.131 ft <br /> CON yes/yes


METAR
Observation RODN 190956Z AUTO 34003KT 10SM CLR 26/21 A2988 RMK AO2 SLP124 T02640205 $
Station Kadena Ab
Date/Time 19 September 2021 09:56:00
Wind direction 340°
Wind speed 03 kts
Lowest cloud amount n/a
Temperature 26.4°C
Dew point 20.5°C
Humidity 70%
QNH hPa
Weather condition n/a

test